Phra Nakhon Si Ayutthaya, Thailand
Current Conditions -  °F | °C
As of 5:00 PM on Wednesday 22 Oct 2014 (Local Time) from VTBD Reporting Station
Broken Clouds Broken Clouds  
Wind Chill: 86°   Ceiling: 12000
Heat Index: 95°   Visibility: 6mi
Dew Point: 75°   Wind: 0mph
Humidity: 70%   Direction: NA
Pressure: 29.8"   Gusts: NA
Location:  14.4°N, 100.52°E
Report Text: VTBD 221000Z 00000KT 9999 FEW020CB BKN120 BKN300 30/24 Q1009 NOSIG
Loading
Personal Weather Stations






























Interactive Weather Map
Tropical Storm Tracking
New forecast layout! Learn more

10-Day Weather Forecast

Advertisements
Track Severe Weather on mobile